createdAt,value
2023-10-06T00:02:30.411Z,11.87
2023-10-06T00:05:27.645Z,11.88
2023-10-06T00:08:18.855Z,11.80
2023-10-06T00:10:57.721Z,11.70
2023-10-06T00:13:39.759Z,11.70
2023-10-06T00:16:25.523Z,11.65
2023-10-06T00:19:32.895Z,11.63
2023-10-06T00:22:34.764Z,11.58
2023-10-06T00:26:03.003Z,11.53
2023-10-06T00:32:28.645Z,11.30
2023-10-06T00:35:23.310Z,11.28
2023-10-06T00:38:00.662Z,11.24
2023-10-06T00:41:16.076Z,11.34
2023-10-06T00:43:49.940Z,11.35
2023-10-06T00:46:27.651Z,11.31
2023-10-06T00:56:19.664Z,11.22
2023-10-06T00:59:10.198Z,11.11
2023-10-06T01:14:48.218Z,10.88
2023-10-06T01:17:23.351Z,10.77
2023-10-06T01:19:59.875Z,10.71
2023-10-06T01:22:43.663Z,10.78
2023-10-06T01:25:25.429Z,10.80
2023-10-06T01:28:14.500Z,10.84
2023-10-06T01:30:55.351Z,10.80
2023-10-06T01:33:30.229Z,10.78
2023-10-06T01:36:26.766Z,10.78
2023-10-06T01:39:06.718Z,10.80
2023-10-06T01:41:43.445Z,10.79
2023-10-06T01:44:25.668Z,10.80
2023-10-06T01:47:00.770Z,10.76
2023-10-06T01:49:40.063Z,10.77
2023-10-06T01:52:33.294Z,10.71
2023-10-06T01:55:23.262Z,10.67
2023-10-06T01:58:00.314Z,10.68
2023-10-06T02:00:39.324Z,10.67
2023-10-06T02:03:23.767Z,10.62
2023-10-06T02:06:07.126Z,10.57
2023-10-06T02:08:54.486Z,10.41
2023-10-06T02:11:38.731Z,10.37
2023-10-06T02:14:14.543Z,10.42
2023-10-06T02:16:52.063Z,10.43
2023-10-06T02:19:38.828Z,10.50
2023-10-06T02:22:12.401Z,10.53
2023-10-06T02:28:22.500Z,10.60
2023-10-06T02:30:57.049Z,10.64
2023-10-06T02:33:32.266Z,10.62
2023-10-06T02:36:14.744Z,10.64
2023-10-06T02:38:49.439Z,10.66
2023-10-06T02:41:38.758Z,10.67
2023-10-06T02:44:28.577Z,10.67
2023-10-06T02:47:05.901Z,10.57
2023-10-06T02:50:01.372Z,10.44
2023-10-06T02:53:01.315Z,10.38
2023-10-06T02:55:35.428Z,10.44
2023-10-06T02:58:11.477Z,10.49
2023-10-06T03:00:51.671Z,10.54
2023-10-06T03:07:34.408Z,10.50
2023-10-06T03:10:16.528Z,10.46
2023-10-06T03:13:48.372Z,10.52
2023-10-06T03:16:21.497Z,10.50
2023-10-06T03:19:17.816Z,10.55
2023-10-06T03:21:57.249Z,10.61
2023-10-06T03:24:34.681Z,10.71
2023-10-06T03:27:13.547Z,10.76
2023-10-06T03:29:49.803Z,10.72
2023-10-06T03:32:29.243Z,10.70
2023-10-06T03:35:11.385Z,10.70
2023-10-06T03:37:53.487Z,10.74
2023-10-06T03:40:44.317Z,10.75
2023-10-06T03:43:17.207Z,10.75
2023-10-06T03:45:49.649Z,10.74
2023-10-06T03:48:25.559Z,10.73
2023-10-06T03:50:58.968Z,10.72
2023-10-06T03:53:31.015Z,10.74
2023-10-06T03:56:02.084Z,10.74
2023-10-06T03:58:34.141Z,10.68
2023-10-06T04:01:10.957Z,10.52
2023-10-06T04:03:45.331Z,10.47
2023-10-06T04:06:17.548Z,10.46
2023-10-06T04:08:48.014Z,10.48
2023-10-06T04:11:18.532Z,10.41
2023-10-06T04:13:50.458Z,10.40
2023-10-06T04:16:24.537Z,10.42
2023-10-06T04:18:56.715Z,10.40
2023-10-06T04:21:28.494Z,10.42
2023-10-06T04:24:01.755Z,10.37
2023-10-06T04:26:33.449Z,10.27
2023-10-06T04:29:06.348Z,10.20
2023-10-06T04:31:38.854Z,10.20
2023-10-06T04:34:10.816Z,10.25
2023-10-06T04:36:44.098Z,10.26
2023-10-06T04:39:17.996Z,10.26
2023-10-06T04:41:50.331Z,10.20
2023-10-06T04:44:22.400Z,10.15
2023-10-06T04:46:54.427Z,10.11
2023-10-06T04:49:26.220Z,10.10
2023-10-06T04:52:01.655Z,10.14
2023-10-06T04:54:33.553Z,10.10
2023-10-06T04:57:07.378Z,10.04
2023-10-06T04:59:39.139Z,10.01
2023-10-06T05:02:12.680Z,9.98
2023-10-06T05:04:44.957Z,9.94
2023-10-06T05:07:17.463Z,9.95
2023-10-06T05:09:49.528Z,9.91
2023-10-06T05:12:21.270Z,9.95
2023-10-06T05:14:55.163Z,9.94
2023-10-06T05:17:26.968Z,10.02
2023-10-06T05:20:00.061Z,10.06
2023-10-06T05:22:32.069Z,10.08
2023-10-06T05:25:08.785Z,10.11
2023-10-06T05:27:40.752Z,10.07
2023-10-06T05:30:14.842Z,10.06
2023-10-06T05:32:46.818Z,10.01
2023-10-06T05:35:22.218Z,9.95
2023-10-06T05:37:54.445Z,9.93
2023-10-06T05:40:26.665Z,9.91
2023-10-06T05:42:58.961Z,9.91
2023-10-06T05:45:31.499Z,9.77
2023-10-06T05:48:08.389Z,9.68
2023-10-06T05:50:41.915Z,9.70
2023-10-06T05:53:21.285Z,9.67
2023-10-06T05:55:54.434Z,9.64
2023-10-06T05:58:26.613Z,9.62
2023-10-06T06:01:06.351Z,9.55
2023-10-06T06:03:40.671Z,9.53
2023-10-06T06:06:16.154Z,9.59
2023-10-06T06:08:50.049Z,9.59
2023-10-06T06:11:22.296Z,9.64
2023-10-06T06:16:31.709Z,9.85
2023-10-06T06:19:06.946Z,9.94
2023-10-06T06:21:39.928Z,9.87
2023-10-06T06:24:12.422Z,9.81
2023-10-06T06:26:44.738Z,9.80
2023-10-06T06:29:16.663Z,9.75
2023-10-06T06:31:47.657Z,9.81
2023-10-06T06:34:19.534Z,9.76
2023-10-06T06:36:52.826Z,9.70
2023-10-06T06:39:24.705Z,9.67
2023-10-06T06:41:54.991Z,9.68
2023-10-06T06:44:27.194Z,9.76
2023-10-06T06:46:59.636Z,9.74
2023-10-06T06:49:31.550Z,9.72
2023-10-06T06:52:01.986Z,9.80
2023-10-06T06:54:38.689Z,9.82
2023-10-06T06:57:14.296Z,9.81
2023-10-06T06:59:47.024Z,9.74
2023-10-06T07:02:18.831Z,9.67
2023-10-06T07:04:54.247Z,9.62
2023-10-06T07:07:28.193Z,9.55
2023-10-06T07:10:00.572Z,9.61
2023-10-06T07:12:32.422Z,9.60
2023-10-06T07:15:04.734Z,9.62
2023-10-06T07:17:36.610Z,9.65
2023-10-06T07:20:15.467Z,9.64
2023-10-06T07:22:48.982Z,9.68
2023-10-06T07:25:21.072Z,9.74
2023-10-06T07:27:56.774Z,9.87
2023-10-06T07:30:30.668Z,9.96
2023-10-06T07:33:04.292Z,9.89
2023-10-06T07:35:43.426Z,9.92
2023-10-06T07:38:15.666Z,9.94
2023-10-06T07:40:49.210Z,9.96
2023-10-06T07:43:24.809Z,9.93
2023-10-06T07:45:57.227Z,9.95
2023-10-06T07:48:29.942Z,9.98
2023-10-06T07:51:09.293Z,10.07
2023-10-06T07:53:41.251Z,10.07
2023-10-06T07:56:15.942Z,10.06
2023-10-06T07:58:49.436Z,10.11
2023-10-06T08:01:27.057Z,10.09
2023-10-06T08:03:59.110Z,10.06
2023-10-06T08:06:30.939Z,10.05
2023-10-06T08:09:06.979Z,10.06
2023-10-06T08:11:40.860Z,10.06
2023-10-06T08:14:14.733Z,10.06
2023-10-06T08:16:47.338Z,10.12
2023-10-06T08:19:23.437Z,10.14
2023-10-06T08:21:57.138Z,10.14
2023-10-06T08:24:29.853Z,10.20
2023-10-06T08:27:02.336Z,10.24
2023-10-06T08:29:34.738Z,10.32
2023-10-06T08:32:07.837Z,10.36
2023-10-06T08:34:40.882Z,10.43
2023-10-06T08:37:13.181Z,10.45
2023-10-06T08:39:48.031Z,10.41
2023-10-06T08:42:20.573Z,10.41
2023-10-06T08:45:02.559Z,10.46
2023-10-06T08:47:53.419Z,10.48
2023-10-06T08:50:37.054Z,10.50
2023-10-06T08:53:19.761Z,10.49
2023-10-06T08:55:58.657Z,10.55
2023-10-06T08:58:33.408Z,10.57
2023-10-06T09:01:07.601Z,10.64
2023-10-06T09:03:40.660Z,10.76
2023-10-06T09:06:13.858Z,10.83
2023-10-06T09:08:49.419Z,10.88
2023-10-06T09:11:40.506Z,10.92
2023-10-06T09:14:13.572Z,11.02
2023-10-06T09:16:53.035Z,11.06
2023-10-06T09:19:27.834Z,10.99
2023-10-06T09:22:08.180Z,10.95
2023-10-06T09:24:40.878Z,10.98
2023-10-06T09:27:28.819Z,11.03
2023-10-06T09:30:13.456Z,11.04
2023-10-06T09:32:51.436Z,11.05
2023-10-06T09:35:28.348Z,11.11
2023-10-06T09:38:27.124Z,11.21
2023-10-06T09:41:01.555Z,11.29
2023-10-06T09:44:39.823Z,11.38
2023-10-06T09:47:16.190Z,11.44
2023-10-06T09:50:02.746Z,11.49
2023-10-06T09:52:50.104Z,11.56
2023-10-06T09:55:29.457Z,11.67
2023-10-06T09:58:03.152Z,11.78
2023-10-06T10:00:41.406Z,11.91
2023-10-06T10:03:16.938Z,12.04
2023-10-06T10:06:06.700Z,12.18
2023-10-06T10:08:53.232Z,12.30
2023-10-06T10:11:40.921Z,12.43
2023-10-06T10:18:08.368Z,12.70
2023-10-06T10:20:53.780Z,12.80
2023-10-06T10:23:36.203Z,12.86
2023-10-06T10:26:23.588Z,13.08
2023-10-06T10:29:31.989Z,13.22
2023-10-06T10:32:15.814Z,13.34
2023-10-06T10:35:09.831Z,13.38
2023-10-06T10:38:05.692Z,13.45
2023-10-06T10:40:51.336Z,13.54
2023-10-06T10:43:27.881Z,13.60
2023-10-06T10:46:11.080Z,13.71
2023-10-06T10:49:10.835Z,13.72
2023-10-06T10:52:30.946Z,13.79
2023-10-06T10:55:53.900Z,13.89
2023-10-06T10:59:00.382Z,13.91
2023-10-06T11:02:03.786Z,13.96
2023-10-06T11:04:47.574Z,14.07
2023-10-06T11:07:34.329Z,14.15
2023-10-06T11:10:12.278Z,14.20
2023-10-06T11:12:44.996Z,14.26
2023-10-06T11:15:33.527Z,14.32
2023-10-06T11:18:08.694Z,14.42
2023-10-06T11:20:46.640Z,14.48
2023-10-06T11:23:18.888Z,14.60
2023-10-06T11:26:06.588Z,14.75
2023-10-06T11:28:46.881Z,14.81
2023-10-06T11:31:20.284Z,14.88
2023-10-06T11:33:53.424Z,14.93
2023-10-06T11:36:25.437Z,14.99
2023-10-06T11:38:57.779Z,15.05
2023-10-06T11:41:29.640Z,15.10
2023-10-06T11:44:02.580Z,15.19
2023-10-06T11:46:51.157Z,15.35
2023-10-06T11:49:24.301Z,15.50
2023-10-06T11:51:58.852Z,15.64
2023-10-06T11:54:37.092Z,15.72
2023-10-06T11:57:09.534Z,15.76
2023-10-06T11:59:52.050Z,15.82
2023-10-06T12:02:25.784Z,15.86
2023-10-06T12:05:12.329Z,15.92
2023-10-06T12:07:44.749Z,15.99
2023-10-06T12:10:18.961Z,16.03
2023-10-06T12:12:51.951Z,16.11
2023-10-06T12:15:23.865Z,16.18
2023-10-06T12:17:56.726Z,16.24
2023-10-06T12:20:31.062Z,16.31
2023-10-06T12:23:02.894Z,16.37
2023-10-06T12:25:34.776Z,16.47
2023-10-06T12:28:07.490Z,16.56
2023-10-06T12:30:39.663Z,16.56
2023-10-06T12:33:12.381Z,16.52
2023-10-06T12:35:53.884Z,16.50
2023-10-06T12:38:35.679Z,16.52
2023-10-06T12:41:08.643Z,16.55
2023-10-06T12:43:40.792Z,16.57
2023-10-06T12:46:12.790Z,16.63
2023-10-06T12:48:46.565Z,16.69
2023-10-06T12:51:20.399Z,16.71
2023-10-06T12:53:54.482Z,16.78
2023-10-06T12:56:29.489Z,16.83
2023-10-06T12:59:06.074Z,16.85
2023-10-06T13:01:39.951Z,16.85
2023-10-06T13:04:14.890Z,16.78
2023-10-06T13:06:52.572Z,16.77
2023-10-06T13:09:24.618Z,16.76
2023-10-06T13:11:56.608Z,16.73
2023-10-06T13:14:31.441Z,16.72
2023-10-06T13:17:07.384Z,16.68
2023-10-06T13:19:39.234Z,16.62
2023-10-06T13:22:11.232Z,16.59
2023-10-06T13:27:33.759Z,16.56
2023-10-06T13:30:14.143Z,16.57
2023-10-06T13:32:49.777Z,16.56
2023-10-06T13:35:23.104Z,16.59
2023-10-06T13:37:55.415Z,16.62
2023-10-06T13:40:49.192Z,16.60
2023-10-06T13:43:27.543Z,16.58
2023-10-06T13:46:04.052Z,16.53
2023-10-06T13:48:36.126Z,16.51
2023-10-06T13:51:10.425Z,16.49
2023-10-06T13:53:43.002Z,16.48
2023-10-06T13:56:15.128Z,16.48
2023-10-06T13:58:48.336Z,16.49
2023-10-06T14:01:21.450Z,16.54
2023-10-06T14:03:54.413Z,16.60
2023-10-06T14:06:39.253Z,16.68
2023-10-06T14:09:13.226Z,16.71
2023-10-06T14:11:45.120Z,16.76
2023-10-06T14:14:37.951Z,16.83
2023-10-06T14:17:18.122Z,16.96
2023-10-06T14:19:52.466Z,17.07
2023-10-06T14:22:26.271Z,17.09
2023-10-06T14:25:00.910Z,17.11
2023-10-06T14:27:33.614Z,17.07
2023-10-06T14:30:10.024Z,17.05
2023-10-06T14:32:46.302Z,17.03
2023-10-06T14:35:33.489Z,17.01
2023-10-06T14:38:33.049Z,16.95
2023-10-06T14:41:25.088Z,16.89
2023-10-06T14:44:33.916Z,16.86
2023-10-06T14:47:09.310Z,16.87
2023-10-06T14:49:46.921Z,16.87
2023-10-06T14:52:21.009Z,16.86
2023-10-06T14:54:55.818Z,16.85
2023-10-06T14:57:29.003Z,16.84
2023-10-06T15:02:55.600Z,16.98
2023-10-06T15:05:27.763Z,17.02
2023-10-06T15:08:00.222Z,17.01
2023-10-06T15:10:35.512Z,17.01
2023-10-06T15:13:08.702Z,17.01
2023-10-06T15:15:48.252Z,17.05
2023-10-06T15:18:20.886Z,17.08
2023-10-06T15:20:53.144Z,17.06
2023-10-06T15:23:25.204Z,17.02
2023-10-06T15:26:03.754Z,16.99
2023-10-06T15:28:39.504Z,17.02
2023-10-06T15:31:16.252Z,17.04
2023-10-06T15:33:48.487Z,17.03
2023-10-06T15:36:21.260Z,17.01
2023-10-06T15:38:53.102Z,16.97
2023-10-06T15:41:25.198Z,16.89
2023-10-06T15:43:57.842Z,16.84
2023-10-06T15:46:29.916Z,16.85
2023-10-06T15:49:02.153Z,16.86
2023-10-06T15:51:34.984Z,16.86
2023-10-06T15:54:10.132Z,16.80
2023-10-06T15:56:42.596Z,16.79
2023-10-06T15:59:16.486Z,16.77
2023-10-06T16:01:51.009Z,16.73
2023-10-06T16:04:26.616Z,16.70
2023-10-06T16:07:00.438Z,16.66
2023-10-06T16:09:32.328Z,16.62
2023-10-06T16:12:05.374Z,16.57
2023-10-06T16:14:38.623Z,16.54
2023-10-06T16:17:11.504Z,16.51
2023-10-06T16:19:43.929Z,16.48
2023-10-06T16:22:16.671Z,16.43
2023-10-06T16:24:48.520Z,16.39
2023-10-06T16:27:21.178Z,16.32
2023-10-06T16:29:55.064Z,16.27
2023-10-06T16:32:30.251Z,16.22
2023-10-06T16:35:05.700Z,16.19
2023-10-06T16:37:41.477Z,16.14
2023-10-06T16:40:14.765Z,16.09
2023-10-06T16:42:47.166Z,16.03
2023-10-06T16:45:19.220Z,15.95
2023-10-06T16:47:51.407Z,15.87
2023-10-06T16:50:23.802Z,15.84
2023-10-06T16:52:56.666Z,15.76
2023-10-06T16:55:28.720Z,15.70
2023-10-06T16:58:06.228Z,15.65
2023-10-06T17:00:39.226Z,15.57
2023-10-06T17:03:11.334Z,15.50
2023-10-06T17:05:46.955Z,15.47
2023-10-06T17:08:20.211Z,15.40
2023-10-06T17:10:52.220Z,15.39
2023-10-06T17:13:24.590Z,15.37
2023-10-06T17:15:56.505Z,15.36
2023-10-06T17:18:28.449Z,15.35
2023-10-06T17:21:00.281Z,15.31
2023-10-06T17:23:33.269Z,15.26
2023-10-06T17:26:06.599Z,15.15
2023-10-06T17:28:41.560Z,15.08
2023-10-06T17:34:08.350Z,15.01
2023-10-06T17:36:40.673Z,14.97
2023-10-06T17:39:13.163Z,14.92
2023-10-06T17:41:45.357Z,14.86
2023-10-06T17:44:20.640Z,14.81
2023-10-06T17:46:52.573Z,14.78
2023-10-06T17:49:22.786Z,14.78
2023-10-06T17:51:54.704Z,14.74
2023-10-06T17:54:30.242Z,14.69
2023-10-06T17:57:02.051Z,14.64
2023-10-06T17:59:34.111Z,14.59
2023-10-06T18:02:06.452Z,14.56
2023-10-06T18:04:41.787Z,14.50
2023-10-06T18:07:15.070Z,14.43
2023-10-06T18:09:47.298Z,14.39
2023-10-06T18:14:55.312Z,14.29
2023-10-06T18:17:28.097Z,14.25
2023-10-06T18:19:59.983Z,14.20
2023-10-06T18:22:32.059Z,14.13
2023-10-06T18:25:04.084Z,14.09
2023-10-06T18:27:35.929Z,14.05
2023-10-06T18:30:10.935Z,14.04
2023-10-06T18:32:46.869Z,14.01
2023-10-06T18:35:18.775Z,13.97
2023-10-06T18:37:50.797Z,13.94
2023-10-06T18:40:24.055Z,13.92
2023-10-06T18:42:56.304Z,13.88
2023-10-06T18:45:28.298Z,13.82
2023-10-06T18:48:00.410Z,13.72
2023-10-06T18:50:34.693Z,13.71
2023-10-06T18:53:07.816Z,13.68
2023-10-06T18:55:39.858Z,13.66
2023-10-06T18:58:12.645Z,13.61
2023-10-06T19:00:48.556Z,13.54
2023-10-06T19:03:28.388Z,13.52
2023-10-06T19:06:05.368Z,13.51
2023-10-06T19:08:42.153Z,13.50
2023-10-06T19:11:15.141Z,13.48
2023-10-06T19:13:48.598Z,13.41
2023-10-06T19:16:22.947Z,13.38
2023-10-06T19:18:54.887Z,13.34
2023-10-06T19:21:25.321Z,13.32
2023-10-06T19:23:58.449Z,13.29
2023-10-06T19:26:32.374Z,13.22
2023-10-06T19:29:05.317Z,13.19
2023-10-06T19:31:37.536Z,13.17
2023-10-06T19:34:09.696Z,13.15
2023-10-06T19:36:43.673Z,13.07
2023-10-06T19:39:16.999Z,13.04
2023-10-06T19:41:50.333Z,13.05
2023-10-06T19:44:22.529Z,13.05
2023-10-06T19:46:54.622Z,13.03
2023-10-06T19:49:26.567Z,12.99
2023-10-06T19:51:58.728Z,12.94
2023-10-06T19:54:30.615Z,12.90
2023-10-06T19:57:02.981Z,12.88
2023-10-06T19:59:35.151Z,12.87
2023-10-06T20:02:16.937Z,12.83
2023-10-06T20:04:48.948Z,12.81
2023-10-06T20:07:20.941Z,12.81
2023-10-06T20:09:51.635Z,12.81
2023-10-06T20:12:24.376Z,12.82
2023-10-06T20:14:59.268Z,12.82
2023-10-06T20:17:31.971Z,12.80
2023-10-06T20:20:05.597Z,12.76
2023-10-06T20:22:38.637Z,12.71
2023-10-06T20:25:12.264Z,12.67
2023-10-06T20:27:47.768Z,12.62
2023-10-06T20:30:22.088Z,12.58
2023-10-06T20:32:55.836Z,12.53
2023-10-06T20:35:29.019Z,12.47
2023-10-06T20:38:00.945Z,12.42
2023-10-06T20:40:34.362Z,12.37
2023-10-06T20:43:08.635Z,12.30
2023-10-06T20:45:40.442Z,12.25
2023-10-06T20:48:10.957Z,12.23
2023-10-06T20:50:44.358Z,12.22
2023-10-06T20:53:17.374Z,12.19
2023-10-06T20:55:49.295Z,12.16
2023-10-06T20:58:22.997Z,12.11
2023-10-06T21:00:57.453Z,12.08
2023-10-06T21:03:29.868Z,12.02
2023-10-06T21:06:02.034Z,11.98
2023-10-06T21:08:33.839Z,11.94
2023-10-06T21:11:04.284Z,11.90
2023-10-06T21:13:37.288Z,11.89
2023-10-06T21:16:10.420Z,11.90
2023-10-06T21:18:42.440Z,11.88
2023-10-06T21:21:14.295Z,11.84
2023-10-06T21:23:51.164Z,11.83
2023-10-06T21:26:26.488Z,11.80
2023-10-06T21:28:59.923Z,11.83
2023-10-06T21:31:33.004Z,11.80
2023-10-06T21:34:06.274Z,11.78
2023-10-06T21:36:39.750Z,11.83
2023-10-06T21:39:14.386Z,11.85
2023-10-06T21:41:48.772Z,11.82
2023-10-06T21:44:22.654Z,11.78
2023-10-06T21:46:58.645Z,11.77
2023-10-06T21:49:32.641Z,11.71
2023-10-06T21:52:17.380Z,11.66
2023-10-06T21:55:38.581Z,11.69
2023-10-06T21:58:12.593Z,11.71
2023-10-06T22:00:47.976Z,11.67
2023-10-06T22:03:22.527Z,11.58
2023-10-06T22:06:00.134Z,11.54
2023-10-06T22:08:51.940Z,11.46
2023-10-06T22:11:26.239Z,11.45
2023-10-06T22:13:58.359Z,11.46
2023-10-06T22:16:30.532Z,11.47
2023-10-06T22:19:02.571Z,11.43
2023-10-06T22:21:34.411Z,11.40
2023-10-06T22:24:07.061Z,11.38
2023-10-06T22:26:39.081Z,11.38
2023-10-06T22:29:09.410Z,11.39
2023-10-06T22:31:44.873Z,11.44
2023-10-06T22:34:16.867Z,11.44
2023-10-06T22:36:48.693Z,11.45
2023-10-06T22:39:21.340Z,11.42
2023-10-06T22:41:53.213Z,11.37
2023-10-06T22:44:25.392Z,11.35
2023-10-06T22:46:55.699Z,11.27
2023-10-06T22:49:27.877Z,11.21
2023-10-06T22:52:00.571Z,11.15
2023-10-06T22:54:32.892Z,11.09
2023-10-06T22:57:06.618Z,11.08
2023-10-06T22:59:39.103Z,11.08
2023-10-06T23:02:11.395Z,11.05
2023-10-06T23:04:44.264Z,11.03
2023-10-06T23:07:16.629Z,11.02
2023-10-06T23:09:48.534Z,11.03
2023-10-06T23:12:20.568Z,11.05
2023-10-06T23:14:53.002Z,11.00
2023-10-06T23:17:25.166Z,10.97
2023-10-06T23:20:00.167Z,10.97
2023-10-06T23:22:32.061Z,10.98
2023-10-06T23:25:04.198Z,10.99
2023-10-06T23:27:36.183Z,10.99
2023-10-06T23:30:11.408Z,11.00
2023-10-06T23:32:44.771Z,10.99
2023-10-06T23:35:18.737Z,11.00
2023-10-06T23:37:56.361Z,10.95
2023-10-06T23:40:34.866Z,10.92
2023-10-06T23:43:09.633Z,10.89
2023-10-06T23:45:48.854Z,10.90
2023-10-06T23:48:20.760Z,10.88
2023-10-06T23:50:59.866Z,10.89
2023-10-06T23:53:31.813Z,10.88
2023-10-06T23:56:02.623Z,10.80
2023-10-06T23:58:35.335Z,10.81
